createdAt,value
2022-11-29T00:01:56.341Z,62.33
2022-11-29T00:04:44.125Z,59.83
2022-11-29T00:07:31.698Z,54.38
2022-11-29T00:10:19.281Z,59.00
2022-11-29T00:13:06.886Z,54.45
2022-11-29T00:15:54.276Z,53.08
2022-11-29T00:18:42.252Z,60.97
2022-11-29T00:21:30.351Z,53.17
2022-11-29T00:24:18.143Z,59.22
2022-11-29T00:27:05.622Z,60.13
2022-11-29T00:29:53.060Z,59.08
2022-11-29T00:32:40.585Z,57.45
2022-11-29T00:35:28.371Z,54.80
2022-11-29T00:38:16.208Z,61.78
2022-11-29T00:41:04.147Z,62.92
2022-11-29T00:43:51.616Z,56.65
2022-11-29T00:46:39.203Z,62.65
2022-11-29T00:49:26.706Z,62.67
2022-11-29T00:52:14.304Z,59.80
2022-11-29T00:55:01.787Z,55.30
2022-11-29T00:57:49.296Z,66.38
2022-11-29T01:00:36.996Z,58.10
2022-11-29T01:03:25.391Z,56.88
2022-11-29T01:06:15.946Z,55.58
2022-11-29T01:09:04.290Z,62.65
2022-11-29T01:11:52.147Z,51.85
2022-11-29T01:14:40.037Z,59.65
2022-11-29T01:17:27.748Z,62.10
2022-11-29T01:20:16.314Z,60.47
2022-11-29T01:23:04.114Z,65.47
2022-11-29T01:25:59.765Z,68.00
2022-11-29T01:28:48.775Z,64.18
2022-11-29T01:31:36.775Z,62.65
2022-11-29T01:34:24.169Z,65.63
2022-11-29T01:37:11.529Z,64.03
2022-11-29T01:39:59.863Z,64.07
2022-11-29T01:42:47.271Z,64.03
2022-11-29T01:45:38.437Z,62.17
2022-11-29T01:48:28.994Z,64.72
2022-11-29T01:51:16.940Z,67.63
2022-11-29T01:54:05.219Z,69.63
2022-11-29T01:56:53.271Z,61.95
2022-11-29T01:59:49.912Z,61.78
2022-11-29T02:02:43.631Z,64.10
2022-11-29T02:05:33.635Z,64.22
2022-11-29T02:08:27.732Z,65.68
2022-11-29T02:11:26.918Z,65.25
2022-11-29T02:14:47.797Z,72.03
2022-11-29T02:17:48.790Z,67.95
2022-11-29T02:21:12.059Z,70.70
2022-11-29T02:24:34.321Z,72.70
2022-11-29T02:28:04.841Z,66.07
2022-11-29T02:31:07.178Z,66.10
2022-11-29T02:34:10.590Z,72.95
2022-11-29T02:37:35.628Z,61.28
2022-11-29T02:40:58.535Z,63.85
2022-11-29T02:43:59.149Z,67.45
2022-11-29T02:47:11.741Z,66.90
2022-11-29T02:50:49.826Z,72.85
2022-11-29T02:53:40.224Z,64.93
2022-11-29T02:56:59.359Z,70.50
2022-11-29T03:00:05.203Z,70.65
2022-11-29T03:03:03.525Z,72.07
2022-11-29T03:06:07.995Z,66.53
2022-11-29T03:09:10.655Z,75.40
2022-11-29T03:12:18.111Z,73.32
2022-11-29T03:15:24.215Z,66.85
2022-11-29T03:18:34.431Z,68.03
2022-11-29T03:21:33.885Z,67.95
2022-11-29T03:24:26.196Z,66.50
2022-11-29T03:27:19.549Z,61.80
2022-11-29T03:30:10.474Z,79.50
2022-11-29T03:33:12.932Z,71.03
2022-11-29T03:36:20.553Z,68.70
2022-11-29T03:39:17.590Z,69.43
2022-11-29T03:42:13.084Z,67.85
2022-11-29T03:45:09.909Z,70.25
2022-11-29T03:48:07.108Z,78.57
2022-11-29T03:50:59.865Z,68.63
2022-11-29T03:54:16.230Z,72.75
2022-11-29T03:57:03.938Z,73.18
2022-11-29T04:00:11.752Z,70.57
2022-11-29T04:03:36.471Z,78.32
2022-11-29T04:06:32.858Z,75.60
2022-11-29T04:09:26.414Z,69.22
2022-11-29T04:13:11.593Z,69.45
2022-11-29T04:16:11.093Z,71.07
2022-11-29T04:19:16.423Z,73.47
2022-11-29T04:22:04.610Z,60.53
2022-11-29T04:25:04.231Z,66.95
2022-11-29T04:28:19.772Z,65.55
2022-11-29T04:31:19.971Z,66.80
2022-11-29T04:34:37.981Z,69.60
2022-11-29T04:38:06.232Z,67.15
2022-11-29T04:41:30.198Z,69.88
2022-11-29T04:44:48.835Z,71.85
2022-11-29T04:47:44.227Z,70.07
2022-11-29T04:50:43.892Z,71.82
2022-11-29T04:53:49.591Z,71.15
2022-11-29T04:56:47.666Z,72.95
2022-11-29T04:59:53.776Z,68.70
2022-11-29T05:02:56.746Z,82.72
2022-11-29T05:05:51.358Z,70.20
2022-11-29T05:08:59.501Z,76.05
2022-11-29T05:11:46.878Z,68.20
2022-11-29T05:14:49.548Z,70.75
2022-11-29T05:17:49.939Z,73.90
2022-11-29T05:20:47.876Z,71.03
2022-11-29T05:24:03.928Z,75.95
2022-11-29T05:26:56.718Z,73.82
2022-11-29T05:30:13.360Z,74.88
2022-11-29T05:33:15.053Z,71.78
2022-11-29T05:36:11.070Z,69.28
2022-11-29T05:39:10.447Z,70.13
2022-11-29T05:42:25.376Z,72.38
2022-11-29T05:45:25.204Z,65.95
2022-11-29T05:48:24.802Z,71.85
2022-11-29T05:51:21.640Z,63.55
2022-11-29T05:54:24.762Z,71.10
2022-11-29T05:57:15.204Z,63.05
2022-11-29T06:00:05.567Z,68.40
2022-11-29T06:03:34.816Z,69.32
2022-11-29T06:06:40.536Z,66.72
2022-11-29T06:09:32.225Z,71.90
2022-11-29T06:12:22.069Z,73.03
2022-11-29T06:15:23.660Z,72.35
2022-11-29T06:18:33.199Z,70.75
2022-11-29T06:21:26.507Z,73.35
2022-11-29T06:24:39.947Z,73.10
2022-11-29T06:27:48.652Z,70.95
2022-11-29T06:30:50.976Z,79.20
2022-11-29T06:34:09.330Z,66.75
2022-11-29T06:37:19.968Z,78.57
2022-11-29T06:40:12.276Z,65.88
2022-11-29T06:43:00.170Z,82.15
2022-11-29T06:45:56.095Z,73.20
2022-11-29T06:48:51.220Z,75.90
2022-11-29T06:52:12.780Z,78.43
2022-11-29T06:55:15.963Z,76.53
2022-11-29T06:58:21.710Z,94.40
2022-11-29T07:01:19.537Z,77.50
2022-11-29T07:04:31.309Z,74.45
2022-11-29T07:07:20.598Z,71.60
2022-11-29T07:10:17.533Z,83.72
2022-11-29T07:13:05.294Z,77.32
2022-11-29T07:16:08.038Z,78.60
2022-11-29T07:19:17.574Z,81.35
2022-11-29T07:22:23.628Z,72.80
2022-11-29T07:25:34.433Z,71.97
2022-11-29T07:28:35.476Z,73.93
2022-11-29T07:31:38.456Z,78.82
2022-11-29T07:35:16.685Z,79.90
2022-11-29T07:38:27.029Z,82.32
2022-11-29T07:41:28.799Z,82.80
2022-11-29T07:44:47.057Z,75.30
2022-11-29T07:47:36.078Z,77.32
2022-11-29T07:50:25.166Z,74.63
2022-11-29T07:53:17.636Z,74.82
2022-11-29T07:56:05.603Z,82.50
2022-11-29T07:58:53.031Z,78.78
2022-11-29T08:01:40.693Z,81.40
2022-11-29T08:04:28.401Z,91.57
2022-11-29T08:07:15.996Z,81.00
2022-11-29T08:10:06.258Z,72.68
2022-11-29T08:12:53.789Z,72.95
2022-11-29T08:15:45.571Z,94.68
2022-11-29T08:18:33.869Z,68.95
2022-11-29T08:21:21.360Z,76.97
2022-11-29T08:24:09.319Z,75.28
2022-11-29T08:26:56.795Z,79.28
2022-11-29T08:29:44.205Z,70.78
2022-11-29T08:32:31.638Z,85.07
2022-11-29T08:35:21.760Z,83.20
2022-11-29T08:38:09.581Z,86.35
2022-11-29T08:41:04.748Z,73.95
2022-11-29T08:43:52.854Z,68.40
2022-11-29T08:46:58.960Z,74.80
2022-11-29T08:50:01.435Z,71.25
2022-11-29T08:53:09.011Z,68.95
2022-11-29T08:56:00.002Z,71.10
2022-11-29T08:58:47.460Z,68.80
2022-11-29T09:01:34.945Z,64.88
2022-11-29T09:04:22.395Z,73.90
2022-11-29T09:07:09.911Z,71.00
2022-11-29T09:09:57.588Z,71.90
2022-11-29T09:12:45.632Z,62.58
2022-11-29T09:15:33.239Z,78.30
2022-11-29T09:18:20.883Z,71.20
2022-11-29T09:21:10.141Z,68.20
2022-11-29T09:23:59.885Z,65.55
2022-11-29T09:26:50.474Z,64.50
2022-11-29T09:29:37.878Z,65.05
2022-11-29T09:32:25.206Z,71.05
2022-11-29T09:35:13.002Z,72.47
2022-11-29T09:38:00.527Z,78.72
2022-11-29T09:40:57.645Z,74.72
2022-11-29T09:44:04.025Z,68.43
2022-11-29T09:46:54.469Z,67.40
2022-11-29T09:49:57.871Z,76.85
2022-11-29T09:53:10.083Z,67.40
2022-11-29T09:56:09.025Z,75.45
2022-11-29T09:59:03.904Z,67.18
2022-11-29T10:02:18.379Z,79.43
2022-11-29T10:05:23.556Z,70.65
2022-11-29T10:08:25.700Z,70.13
2022-11-29T10:11:24.745Z,72.75
2022-11-29T10:14:24.222Z,68.28
2022-11-29T10:17:39.497Z,72.72
2022-11-29T10:20:30.393Z,68.18
2022-11-29T10:23:30.041Z,65.90
2022-11-29T10:26:18.294Z,99.13
2022-11-29T10:29:05.882Z,72.82
2022-11-29T10:31:57.117Z,72.15
2022-11-29T10:34:45.277Z,72.65
2022-11-29T10:37:33.116Z,76.68
2022-11-29T10:40:32.341Z,72.70
2022-11-29T10:43:20.186Z,72.55
2022-11-29T10:46:17.585Z,74.47
2022-11-29T10:49:07.387Z,69.60
2022-11-29T10:51:54.754Z,63.95
2022-11-29T10:54:44.604Z,68.00
2022-11-29T10:57:32.678Z,79.32
2022-11-29T11:00:20.412Z,63.90
2022-11-29T11:03:26.289Z,77.60
2022-11-29T11:06:44.926Z,68.70
2022-11-29T11:09:43.105Z,79.45
2022-11-29T11:12:33.568Z,79.38
2022-11-29T11:15:31.125Z,72.93
2022-11-29T11:18:24.103Z,74.63
2022-11-29T11:21:14.819Z,70.35
2022-11-29T11:24:03.272Z,68.55
2022-11-29T11:26:50.905Z,70.60
2022-11-29T11:29:42.515Z,73.53
2022-11-29T11:32:30.000Z,72.13
2022-11-29T11:35:24.235Z,66.68
2022-11-29T11:38:16.958Z,68.30
2022-11-29T11:41:16.811Z,64.88
2022-11-29T11:44:07.111Z,69.05
2022-11-29T11:47:05.464Z,66.85
2022-11-29T11:50:07.704Z,68.18
2022-11-29T11:53:17.498Z,65.63
2022-11-29T11:56:12.994Z,64.60
2022-11-29T11:59:00.835Z,69.90
2022-11-29T12:01:48.687Z,68.13
2022-11-29T12:04:38.043Z,72.07
2022-11-29T12:07:59.759Z,90.95
2022-11-29T12:10:44.932Z,69.75
2022-11-29T12:13:36.007Z,68.97
2022-11-29T12:16:31.538Z,73.22
2022-11-29T12:19:25.758Z,67.80
2022-11-29T12:22:19.879Z,90.88
2022-11-29T12:25:14.024Z,71.72
2022-11-29T12:28:01.490Z,67.85
2022-11-29T12:31:16.878Z,69.30
2022-11-29T12:34:56.129Z,75.28
2022-11-29T12:37:48.064Z,71.53
2022-11-29T12:44:15.762Z,74.28
2022-11-29T12:47:39.765Z,72.80
2022-11-29T12:50:57.575Z,69.60
2022-11-29T12:53:54.470Z,77.03
2022-11-29T12:57:10.028Z,82.18
2022-11-29T13:00:19.051Z,74.05
2022-11-29T13:03:47.539Z,78.72
2022-11-29T13:07:26.909Z,72.47
2022-11-29T13:10:23.105Z,80.30
2022-11-29T13:14:42.146Z,71.22
2022-11-29T13:17:40.537Z,79.00
2022-11-29T13:20:49.395Z,74.13
2022-11-29T13:24:10.397Z,81.38
2022-11-29T13:26:55.732Z,75.93
2022-11-29T13:29:43.988Z,73.22
2022-11-29T13:32:45.762Z,75.07
2022-11-29T13:35:49.251Z,91.13
2022-11-29T13:39:11.217Z,78.05
2022-11-29T13:42:21.984Z,77.10
2022-11-29T13:45:32.141Z,74.13
2022-11-29T13:48:34.656Z,77.63
2022-11-29T13:51:28.900Z,76.00
2022-11-29T13:54:32.965Z,78.00
2022-11-29T13:57:21.033Z,65.18
2022-11-29T14:00:33.860Z,76.25
2022-11-29T14:03:24.814Z,78.07
2022-11-29T14:06:25.194Z,69.68
2022-11-29T14:09:19.247Z,75.97
2022-11-29T14:12:19.925Z,73.28
2022-11-29T14:15:28.577Z,67.80
2022-11-29T14:18:44.515Z,88.13
2022-11-29T14:22:07.091Z,75.20
2022-11-29T14:25:16.312Z,76.32
2022-11-29T14:28:45.954Z,74.38
2022-11-29T14:31:56.464Z,75.57
2022-11-29T14:34:50.832Z,78.30
2022-11-29T14:38:15.035Z,77.95
2022-11-29T14:41:30.027Z,77.10
2022-11-29T14:44:35.070Z,77.13
2022-11-29T14:47:38.627Z,80.70
2022-11-29T14:50:35.389Z,84.95
2022-11-29T14:53:37.869Z,67.05
2022-11-29T14:56:31.990Z,72.75
2022-11-29T14:59:44.660Z,77.32
2022-11-29T15:02:45.141Z,75.75
2022-11-29T15:05:58.138Z,78.72
2022-11-29T15:08:58.659Z,69.85
2022-11-29T15:12:06.563Z,73.47
2022-11-29T15:15:13.132Z,76.88
2022-11-29T15:18:16.841Z,75.60
2022-11-29T15:21:32.694Z,82.40
2022-11-29T15:24:28.718Z,75.05
2022-11-29T15:27:20.366Z,89.60
2022-11-29T15:30:34.605Z,81.43
2022-11-29T15:33:26.464Z,78.30
2022-11-29T15:36:23.704Z,83.18
2022-11-29T15:39:29.986Z,78.95
2022-11-29T15:42:18.219Z,77.65
2022-11-29T15:45:36.408Z,80.75
2022-11-29T15:48:33.894Z,70.85
2022-11-29T15:51:42.858Z,81.68
2022-11-29T15:54:49.385Z,80.05
2022-11-29T15:57:49.648Z,77.35
2022-11-29T16:00:42.653Z,80.15
2022-11-29T16:03:49.260Z,69.80
2022-11-29T16:07:00.566Z,75.13
2022-11-29T16:09:58.963Z,81.75
2022-11-29T16:12:57.502Z,80.25
2022-11-29T16:15:56.153Z,71.13
2022-11-29T16:18:49.656Z,75.10
2022-11-29T16:21:41.231Z,79.05
2022-11-29T16:24:42.763Z,79.40
2022-11-29T16:27:34.519Z,76.10
2022-11-29T16:30:31.920Z,71.55
2022-11-29T16:33:31.735Z,68.30
2022-11-29T16:36:30.584Z,71.32
2022-11-29T16:39:24.926Z,71.25
2022-11-29T16:42:33.776Z,77.57
2022-11-29T16:48:47.177Z,72.47
2022-11-29T16:54:39.720Z,73.13
2022-11-29T16:57:32.868Z,72.32
2022-11-29T17:00:39.995Z,79.78
2022-11-29T17:03:34.320Z,75.68
2022-11-29T17:06:23.429Z,77.05
2022-11-29T17:09:22.834Z,74.50
2022-11-29T17:12:13.949Z,80.78
2022-11-29T17:15:01.373Z,81.17
2022-11-29T17:17:49.431Z,73.20
2022-11-29T17:20:37.248Z,87.60
2022-11-29T17:23:24.637Z,87.32
2022-11-29T17:26:13.911Z,86.88
2022-11-29T17:29:01.389Z,82.03
2022-11-29T17:31:50.687Z,82.90
2022-11-29T17:34:51.308Z,82.03
2022-11-29T17:37:42.022Z,98.72
2022-11-29T17:40:39.699Z,85.15
2022-11-29T17:43:33.584Z,85.53
2022-11-29T17:46:38.696Z,95.05
2022-11-29T17:49:29.554Z,93.43
2022-11-29T17:52:30.380Z,90.18
2022-11-29T17:55:29.379Z,93.25
2022-11-29T17:58:17.235Z,93.47
2022-11-29T18:01:09.036Z,93.50
2022-11-29T18:03:59.469Z,94.60
2022-11-29T18:06:50.296Z,83.30
2022-11-29T18:09:38.131Z,104.00
2022-11-29T18:12:25.786Z,80.63
2022-11-29T18:15:13.255Z,95.82
2022-11-29T18:18:06.590Z,93.15
2022-11-29T18:20:58.299Z,95.72
2022-11-29T18:23:56.868Z,103.47
2022-11-29T18:26:44.354Z,98.28
2022-11-29T18:29:38.912Z,98.25
2022-11-29T18:32:27.543Z,94.18
2022-11-29T18:35:15.165Z,90.90
2022-11-29T18:38:18.903Z,94.28
2022-11-29T18:41:13.864Z,93.50
2022-11-29T18:44:06.260Z,97.90
2022-11-29T18:46:53.608Z,95.50
2022-11-29T18:49:41.239Z,103.00
2022-11-29T18:53:04.646Z,94.03
2022-11-29T18:56:03.293Z,91.15
2022-11-29T18:58:58.165Z,95.22
2022-11-29T19:01:48.544Z,91.75
2022-11-29T19:04:37.548Z,91.70
2022-11-29T19:07:25.059Z,93.90
2022-11-29T19:10:12.576Z,102.55
2022-11-29T19:13:00.384Z,99.88
2022-11-29T19:15:55.094Z,97.57
2022-11-29T19:18:43.449Z,94.10
2022-11-29T19:21:34.790Z,99.43
2022-11-29T19:24:30.991Z,90.82
2022-11-29T19:27:18.409Z,95.95
2022-11-29T19:30:06.884Z,101.05
2022-11-29T19:33:02.267Z,103.82
2022-11-29T19:35:49.659Z,88.85
2022-11-29T19:38:38.389Z,94.63
2022-11-29T19:41:34.115Z,93.75
2022-11-29T19:44:26.515Z,94.28
2022-11-29T19:47:17.058Z,96.05
2022-11-29T19:50:04.961Z,102.15
2022-11-29T19:52:52.373Z,102.88
2022-11-29T19:55:43.891Z,104.68
2022-11-29T19:58:32.356Z,94.32
2022-11-29T20:01:35.948Z,98.38
2022-11-29T20:04:26.918Z,98.30
2022-11-29T20:07:14.274Z,86.82
2022-11-29T20:10:01.666Z,101.95
2022-11-29T20:12:49.298Z,104.88
2022-11-29T20:15:36.740Z,100.88
2022-11-29T20:18:24.301Z,107.78
2022-11-29T20:21:14.571Z,109.90
2022-11-29T20:24:04.893Z,110.30
2022-11-29T20:26:52.225Z,117.10
2022-11-29T20:29:39.604Z,100.47
2022-11-29T20:32:27.102Z,109.90
2022-11-29T20:35:17.209Z,112.78
2022-11-29T20:38:07.463Z,97.80
2022-11-29T20:41:02.724Z,121.40
2022-11-29T20:43:55.932Z,108.13
2022-11-29T20:46:50.698Z,96.82
2022-11-29T20:49:38.407Z,100.15
2022-11-29T20:52:32.622Z,100.20
2022-11-29T20:55:20.845Z,95.55
2022-11-29T20:58:08.675Z,95.78
2022-11-29T21:00:56.290Z,89.75
2022-11-29T21:03:44.165Z,107.38
2022-11-29T21:06:34.325Z,91.75
2022-11-29T21:09:21.704Z,94.07
2022-11-29T21:12:09.736Z,110.45
2022-11-29T21:14:58.163Z,118.53
2022-11-29T21:17:45.704Z,95.28
2022-11-29T21:20:33.588Z,95.60
2022-11-29T21:23:21.207Z,112.53
2022-11-29T21:26:15.945Z,98.78
2022-11-29T21:29:09.338Z,89.70
2022-11-29T21:31:57.193Z,90.82
2022-11-29T21:34:44.780Z,96.28
2022-11-29T21:37:32.269Z,98.18
2022-11-29T21:40:19.689Z,98.82
2022-11-29T21:43:07.051Z,105.50
2022-11-29T21:45:54.416Z,97.15
2022-11-29T21:48:42.454Z,119.65
2022-11-29T21:51:29.834Z,101.07
2022-11-29T21:54:17.678Z,96.18
2022-11-29T21:57:05.040Z,127.00
2022-11-29T21:59:52.831Z,115.65
2022-11-29T22:02:40.257Z,107.88
2022-11-29T22:05:27.779Z,94.93
2022-11-29T22:08:15.209Z,89.07
2022-11-29T22:11:34.394Z,99.32
2022-11-29T22:14:22.072Z,120.35
2022-11-29T22:17:09.617Z,118.63
2022-11-29T22:19:56.935Z,89.30
2022-11-29T22:22:45.300Z,103.53
2022-11-29T22:25:32.655Z,101.70
2022-11-29T22:28:20.090Z,102.85
2022-11-29T22:31:09.884Z,95.07
2022-11-29T22:33:57.744Z,93.75
2022-11-29T22:36:45.964Z,86.25
2022-11-29T22:39:33.414Z,96.32
2022-11-29T22:42:20.760Z,86.93
2022-11-29T22:45:08.366Z,100.95
2022-11-29T22:47:55.682Z,94.50
2022-11-29T22:50:43.023Z,109.40
2022-11-29T22:53:30.447Z,101.40
2022-11-29T22:56:18.406Z,94.85
2022-11-29T22:59:06.661Z,92.47
2022-11-29T23:01:54.189Z,96.70
2022-11-29T23:04:41.469Z,91.22
2022-11-29T23:07:28.905Z,86.35
2022-11-29T23:10:16.259Z,90.68
2022-11-29T23:13:03.698Z,93.38
2022-11-29T23:15:54.355Z,133.20
2022-11-29T23:18:42.668Z,94.55
2022-11-29T23:21:36.607Z,96.93
2022-11-29T23:24:24.046Z,105.40
2022-11-29T23:27:11.333Z,102.00
2022-11-29T23:29:58.692Z,94.40
2022-11-29T23:32:46.037Z,95.38
2022-11-29T23:35:33.766Z,101.25
2022-11-29T23:38:21.198Z,94.80
2022-11-29T23:41:09.772Z,101.47
2022-11-29T23:43:57.409Z,166.30
2022-11-29T23:46:44.766Z,117.90
2022-11-29T23:49:35.313Z,99.32
2022-11-29T23:52:22.919Z,88.97
2022-11-29T23:55:12.416Z,87.80
2022-11-29T23:58:02.692Z,104.75
